createdAt,value
2022-12-20T00:00:46.607Z,101427.63
2022-12-20T00:03:52.916Z,101426.53
2022-12-20T00:06:55.785Z,101434.47
2022-12-20T00:10:01.213Z,101440.59
2022-12-20T00:13:05.303Z,101429.28
2022-12-20T00:16:09.989Z,101430.34
2022-12-20T00:19:14.151Z,101425.69
2022-12-20T00:22:16.859Z,101428.94
2022-12-20T00:25:22.600Z,101418.63
2022-12-20T00:28:26.797Z,101400.78
2022-12-20T00:31:33.463Z,101405.06
2022-12-20T00:34:37.483Z,101404.78
2022-12-20T00:37:40.604Z,101410.22
2022-12-20T00:40:45.897Z,101408.16
2022-12-20T00:43:50.801Z,101407.53
2022-12-20T00:46:53.834Z,101403.53
2022-12-20T00:49:57.795Z,101399.75
2022-12-20T00:53:00.771Z,101400.81
2022-12-20T00:56:06.238Z,101411.28
2022-12-20T00:59:10.232Z,101417.81
2022-12-20T01:02:13.485Z,101416.69
2022-12-20T01:05:17.607Z,101416.97
2022-12-20T01:08:21.141Z,101415.09
2022-12-20T01:11:29.431Z,101412.56
2022-12-20T01:14:34.291Z,101409.00
2022-12-20T01:17:37.265Z,101414.47
2022-12-20T01:20:41.260Z,101415.56
2022-12-20T01:23:43.995Z,101418.84
2022-12-20T01:26:50.178Z,101409.91
2022-12-20T01:29:54.238Z,101414.09
2022-12-20T01:32:56.969Z,101415.75
2022-12-20T01:36:02.738Z,101415.34
2022-12-20T01:39:08.739Z,101405.91
2022-12-20T01:42:16.618Z,101403.00
2022-12-20T01:45:29.023Z,101397.31
2022-12-20T01:48:32.047Z,101402.06
2022-12-20T01:51:40.487Z,101399.34
2022-12-20T01:54:47.804Z,101396.22
2022-12-20T01:57:58.824Z,101392.91
2022-12-20T02:01:02.893Z,101384.09
2022-12-20T02:04:05.881Z,101397.75
2022-12-20T02:07:12.087Z,101389.31
2022-12-20T02:10:16.607Z,101395.16
2022-12-20T02:13:35.835Z,101396.63
2022-12-20T02:16:46.602Z,101388.88
2022-12-20T02:20:24.469Z,101393.69
2022-12-20T02:24:03.400Z,101396.44
2022-12-20T02:27:45.463Z,101392.25
2022-12-20T02:30:54.834Z,101396.41
2022-12-20T02:34:00.588Z,101392.19
2022-12-20T02:37:03.820Z,101388.03
2022-12-20T02:40:09.425Z,101376.13
2022-12-20T02:43:28.296Z,101360.28
2022-12-20T02:46:33.900Z,101347.06
2022-12-20T02:49:42.317Z,101370.09
2022-12-20T02:52:45.715Z,101358.59
2022-12-20T02:55:55.214Z,101352.69
2022-12-20T03:02:27.911Z,101341.81
2022-12-20T03:05:33.119Z,101332.19
2022-12-20T03:08:36.608Z,101334.09
2022-12-20T03:11:40.691Z,101336.19
2022-12-20T03:14:44.023Z,101331.19
2022-12-20T03:17:49.289Z,101341.84
2022-12-20T03:20:52.026Z,101344.56
2022-12-20T03:23:54.971Z,101354.38
2022-12-20T03:26:59.597Z,101349.75
2022-12-20T03:30:02.357Z,101361.09
2022-12-20T03:33:07.693Z,101351.91
2022-12-20T03:36:10.528Z,101354.81
2022-12-20T03:39:13.290Z,101347.06
2022-12-20T03:42:17.534Z,101350.22
2022-12-20T03:45:20.343Z,101346.69
2022-12-20T03:48:25.624Z,101343.31
2022-12-20T03:51:29.777Z,101345.41
2022-12-20T03:54:32.611Z,101346.44
2022-12-20T03:57:36.441Z,101333.47
2022-12-20T04:00:39.410Z,101338.50
2022-12-20T04:03:44.913Z,101353.72
2022-12-20T04:06:49.355Z,101344.53
2022-12-20T04:09:52.248Z,101352.25
2022-12-20T04:12:56.071Z,101347.28
2022-12-20T04:16:00.872Z,101334.53
2022-12-20T04:19:06.555Z,101333.44
2022-12-20T04:22:10.491Z,101338.91
2022-12-20T04:25:13.742Z,101341.25
2022-12-20T04:28:17.599Z,101331.75
2022-12-20T04:31:24.167Z,101331.75
2022-12-20T04:34:30.096Z,101333.44
2022-12-20T04:37:34.065Z,101337.03
2022-12-20T04:40:38.743Z,101329.06
2022-12-20T04:43:42.608Z,101314.19
2022-12-20T04:46:45.611Z,101319.66
2022-12-20T04:49:50.831Z,101317.13
2022-12-20T04:53:12.371Z,101325.09
2022-12-20T04:56:16.795Z,101312.97
2022-12-20T04:59:20.628Z,101321.56
2022-12-20T05:02:23.561Z,101318.19
2022-12-20T05:05:29.203Z,101323.84
2022-12-20T05:08:31.925Z,101340.19
2022-12-20T05:11:35.764Z,101332.84
2022-12-20T05:14:40.143Z,101327.19
2022-12-20T05:17:42.831Z,101314.03
2022-12-20T05:21:11.774Z,101315.91
2022-12-20T05:24:31.834Z,101302.69
2022-12-20T05:27:35.666Z,101301.44
2022-12-20T05:30:38.760Z,101301.63
2022-12-20T05:33:41.558Z,101308.38
2022-12-20T05:36:46.856Z,101290.13
2022-12-20T05:39:50.446Z,101292.22
2022-12-20T05:42:54.315Z,101291.59
2022-12-20T05:45:57.060Z,101299.75
2022-12-20T05:49:01.198Z,101312.31
2022-12-20T05:52:06.927Z,101301.25
2022-12-20T05:55:10.423Z,101289.91
2022-12-20T05:58:15.467Z,101291.59
2022-12-20T06:01:18.344Z,101292.44
2022-12-20T06:04:22.794Z,101295.38
2022-12-20T06:07:30.020Z,101296.84
2022-12-20T06:10:34.598Z,101308.13
2022-12-20T06:13:38.788Z,101317.34
2022-12-20T06:16:41.986Z,101314.00
2022-12-20T06:19:45.883Z,101306.66
2022-12-20T06:22:51.159Z,101308.31
2022-12-20T06:25:54.341Z,101325.91
2022-12-20T06:32:24.876Z,101306.44
2022-12-20T06:35:29.149Z,101295.94
2022-12-20T06:38:34.663Z,101306.84
2022-12-20T06:41:38.170Z,101301.63
2022-12-20T06:44:42.012Z,101315.88
2022-12-20T06:47:44.724Z,101311.44
2022-12-20T06:50:55.451Z,101308.72
2022-12-20T06:54:01.431Z,101308.72
2022-12-20T06:57:04.320Z,101319.81
2022-12-20T07:00:11.669Z,101320.47
2022-12-20T07:03:14.971Z,101316.72
2022-12-20T07:06:19.098Z,101333.25
2022-12-20T07:09:24.374Z,101325.44
2022-12-20T07:12:27.147Z,101336.94
2022-12-20T07:15:33.567Z,101343.25
2022-12-20T07:18:36.432Z,101346.84
2022-12-20T07:21:40.833Z,101349.97
2022-12-20T07:24:46.455Z,101364.22
2022-12-20T07:27:49.875Z,101360.91
2022-12-20T07:30:52.955Z,101365.91
2022-12-20T07:33:55.699Z,101366.78
2022-12-20T07:36:59.237Z,101365.72
2022-12-20T07:40:06.877Z,101370.34
2022-12-20T07:43:11.719Z,101370.53
2022-12-20T07:46:17.642Z,101361.75
2022-12-20T07:49:20.459Z,101361.94
2022-12-20T07:52:27.557Z,101360.47
2022-12-20T07:55:34.641Z,101357.13
2022-12-20T07:58:40.856Z,101359.41
2022-12-20T08:01:46.604Z,101361.53
2022-12-20T08:04:51.001Z,101352.13
2022-12-20T08:07:59.387Z,101360.69
2022-12-20T08:11:04.775Z,101354.84
2022-12-20T08:14:11.572Z,101356.72
2022-12-20T08:17:15.219Z,101355.03
2022-12-20T08:20:18.938Z,101357.75
2022-12-20T08:23:22.472Z,101352.13
2022-12-20T08:26:27.102Z,101352.94
2022-12-20T08:29:29.965Z,101353.75
2022-12-20T08:32:32.727Z,101339.53
2022-12-20T08:35:35.453Z,101337.44
2022-12-20T08:38:39.322Z,101345.56
2022-12-20T08:41:43.491Z,101331.53
2022-12-20T08:44:46.335Z,101329.88
2022-12-20T08:47:49.109Z,101338.22
2022-12-20T08:50:56.429Z,101331.53
2022-12-20T08:53:59.400Z,101324.38
2022-12-20T08:57:03.632Z,101321.22
2022-12-20T09:00:07.888Z,101333.00
2022-12-20T09:03:11.738Z,101333.38
2022-12-20T09:06:16.430Z,101330.03
2022-12-20T09:09:19.472Z,101326.19
2022-12-20T09:12:23.563Z,101320.34
2022-12-20T09:15:27.676Z,101314.44
2022-12-20T09:18:30.492Z,101313.19
2022-12-20T09:21:33.307Z,101307.84
2022-12-20T09:24:38.534Z,101304.72
2022-12-20T09:27:47.274Z,101312.25
2022-12-20T09:30:50.107Z,101315.69
2022-12-20T09:33:55.005Z,101314.81
2022-12-20T09:36:59.444Z,101305.72
2022-12-20T09:40:02.759Z,101307.84
2022-12-20T09:43:11.988Z,101313.50
2022-12-20T09:46:16.488Z,101308.19
2022-12-20T09:49:22.736Z,101302.38
2022-12-20T09:52:50.516Z,101291.16
2022-12-20T09:56:01.026Z,101306.59
2022-12-20T09:59:08.858Z,101295.22
2022-12-20T10:02:44.419Z,101305.84
2022-12-20T10:05:47.255Z,101301.97
2022-12-20T10:08:56.787Z,101315.56
2022-12-20T10:12:14.717Z,101308.56
2022-12-20T10:15:26.497Z,101312.56
2022-12-20T10:18:49.239Z,101297.06
2022-12-20T10:22:00.199Z,101276.69
2022-12-20T10:25:16.409Z,101279.63
2022-12-20T10:28:26.359Z,101274.75
2022-12-20T10:31:33.445Z,101258.47
2022-12-20T10:34:40.001Z,101260.59
2022-12-20T10:38:07.920Z,101249.22
2022-12-20T10:41:21.825Z,101245.41
2022-12-20T10:44:28.504Z,101236.53
2022-12-20T10:47:42.456Z,101237.53
2022-12-20T10:50:57.785Z,101241.59
2022-12-20T10:54:04.286Z,101237.66
2022-12-20T10:57:20.808Z,101220.59
2022-12-20T11:00:31.165Z,101206.31
2022-12-20T11:03:36.912Z,101210.00
2022-12-20T11:06:45.492Z,101193.00
2022-12-20T11:09:59.161Z,101191.81
2022-12-20T11:13:05.597Z,101195.69
2022-12-20T11:16:37.289Z,101166.72
2022-12-20T11:19:57.681Z,101183.72
2022-12-20T11:23:19.787Z,101182.72
2022-12-20T11:26:38.640Z,101182.34
2022-12-20T11:30:05.966Z,101169.03
2022-12-20T11:33:26.027Z,101176.72
2022-12-20T11:36:50.254Z,101173.09
2022-12-20T11:40:05.390Z,101172.25
2022-12-20T11:43:54.177Z,101163.72
2022-12-20T11:47:17.688Z,101164.16
2022-12-20T11:50:45.595Z,101159.28
2022-12-20T11:53:58.485Z,101152.31
2022-12-20T11:57:05.399Z,101151.72
2022-12-20T12:00:14.230Z,101150.03
2022-12-20T12:03:28.394Z,101154.22
2022-12-20T12:06:39.868Z,101158.03
2022-12-20T12:09:56.482Z,101145.66
2022-12-20T12:13:17.302Z,101148.16
2022-12-20T12:16:25.518Z,101142.38
2022-12-20T12:19:30.861Z,101130.34
2022-12-20T12:22:41.921Z,101127.72
2022-12-20T12:25:47.711Z,101130.22
2022-12-20T12:28:57.819Z,101119.78
2022-12-20T12:32:06.321Z,101118.09
2022-12-20T12:35:40.189Z,101108.59
2022-12-20T12:39:10.306Z,101120.25
2022-12-20T12:42:46.012Z,101091.00
2022-12-20T12:45:51.482Z,101093.59
2022-12-20T12:49:01.201Z,101087.09
2022-12-20T12:52:07.231Z,101081.13
2022-12-20T12:55:45.545Z,101082.06
2022-12-20T12:59:21.815Z,101078.41
2022-12-20T13:02:36.426Z,101083.13
2022-12-20T13:05:46.905Z,101092.78
2022-12-20T13:09:10.808Z,101079.22
2022-12-20T13:12:50.713Z,101066.97
2022-12-20T13:16:16.454Z,101071.72
2022-12-20T13:19:32.490Z,101085.19
2022-12-20T13:22:35.531Z,101076.50
2022-12-20T13:25:40.432Z,101076.72
2022-12-20T13:28:46.870Z,101079.34
2022-12-20T13:31:54.605Z,101079.56
2022-12-20T13:35:01.038Z,101066.72
2022-12-20T13:38:06.365Z,101064.81
2022-12-20T13:41:20.287Z,101055.28
2022-12-20T13:44:38.470Z,101052.81
2022-12-20T13:47:52.534Z,101054.13
2022-12-20T13:50:56.880Z,101066.59
2022-12-20T13:54:06.058Z,101061.22
2022-12-20T13:57:12.732Z,101068.75
2022-12-20T14:00:18.930Z,101076.34
2022-12-20T14:03:26.333Z,101075.88
2022-12-20T14:06:29.531Z,101061.84
2022-12-20T14:09:35.461Z,101053.97
2022-12-20T14:12:44.919Z,101060.75
2022-12-20T14:15:48.334Z,101052.56
2022-12-20T14:19:03.094Z,101057.53
2022-12-20T14:22:06.719Z,101053.13
2022-12-20T14:25:13.125Z,101046.72
2022-12-20T14:28:32.893Z,101055.28
2022-12-20T14:31:41.469Z,101059.31
2022-12-20T14:34:45.646Z,101052.28
2022-12-20T14:37:54.812Z,101036.47
2022-12-20T14:40:58.383Z,101034.31
2022-12-20T14:44:07.129Z,101026.72
2022-12-20T14:47:19.592Z,101028.25
2022-12-20T14:50:31.447Z,101034.69
2022-12-20T14:53:36.071Z,101028.72
2022-12-20T14:56:48.003Z,101021.59
2022-12-20T15:00:00.607Z,101021.03
2022-12-20T15:03:13.169Z,101016.63
2022-12-20T15:06:33.059Z,101024.56
2022-12-20T15:09:38.809Z,101027.84
2022-12-20T15:12:44.252Z,101028.72
2022-12-20T15:15:47.196Z,101022.75
2022-12-20T15:18:51.173Z,101019.91
2022-12-20T15:21:55.860Z,101018.94
2022-12-20T15:25:01.180Z,101006.03
2022-12-20T15:28:06.074Z,101006.97
2022-12-20T15:31:14.154Z,101005.91
2022-12-20T15:34:32.231Z,100991.97
2022-12-20T15:37:39.698Z,100982.94
2022-12-20T15:40:42.509Z,100992.91
2022-12-20T15:43:47.188Z,101000.53
2022-12-20T15:46:50.467Z,100990.28
2022-12-20T15:49:53.582Z,100991.94
2022-12-20T15:52:58.398Z,100980.44
2022-12-20T15:56:03.827Z,100982.19
2022-12-20T15:59:32.545Z,100984.66
2022-12-20T16:02:38.212Z,100968.06
2022-12-20T16:05:43.633Z,100971.69
2022-12-20T16:08:47.908Z,100976.28
2022-12-20T16:11:53.355Z,100976.88
2022-12-20T16:14:57.870Z,100965.91
2022-12-20T16:18:00.676Z,100959.28
2022-12-20T16:21:05.336Z,100964.03
2022-12-20T16:24:13.883Z,100959.41
2022-12-20T16:27:16.975Z,100953.56
2022-12-20T16:30:23.424Z,100950.78
2022-12-20T16:33:27.204Z,100950.63
2022-12-20T16:36:30.707Z,100952.75
2022-12-20T16:39:35.820Z,100957.31
2022-12-20T16:42:38.619Z,100957.31
2022-12-20T16:45:41.521Z,100954.81
2022-12-20T16:48:46.653Z,100961.50
2022-12-20T16:51:52.566Z,100963.63
2022-12-20T16:54:58.865Z,100959.00
2022-12-20T16:58:01.823Z,100939.47
2022-12-20T17:01:04.797Z,100954.03
2022-12-20T17:04:09.794Z,100953.72
2022-12-20T17:07:14.191Z,100960.28
2022-12-20T17:10:20.999Z,100949.88
2022-12-20T17:13:24.235Z,100940.88
2022-12-20T17:16:28.008Z,100943.56
2022-12-20T17:19:30.833Z,100937.28
2022-12-20T17:25:55.261Z,100955.03
2022-12-20T17:29:00.577Z,100959.44
2022-12-20T17:32:03.964Z,100948.09
2022-12-20T17:35:08.171Z,100951.41
2022-12-20T17:38:11.089Z,100958.75
2022-12-20T17:41:23.196Z,100969.50
2022-12-20T17:44:29.762Z,100962.91
2022-12-20T17:47:33.887Z,100963.56
2022-12-20T17:50:36.593Z,100947.72
2022-12-20T17:53:39.567Z,100951.56
2022-12-20T17:56:43.683Z,100950.16
2022-12-20T17:59:48.033Z,100959.34
2022-12-20T18:02:50.928Z,100947.44
2022-12-20T18:09:18.299Z,100961.25
2022-12-20T18:12:22.394Z,100956.50
2022-12-20T18:15:26.649Z,100958.34
2022-12-20T18:18:36.564Z,100955.44
2022-12-20T18:21:40.419Z,100951.56
2022-12-20T18:24:44.392Z,100945.94
2022-12-20T18:27:48.657Z,100944.94
2022-12-20T18:30:52.651Z,100945.72
2022-12-20T18:33:58.360Z,100944.06
2022-12-20T18:37:01.835Z,100943.06
2022-12-20T18:43:28.417Z,100930.94
2022-12-20T18:46:31.239Z,100943.00
2022-12-20T18:49:35.659Z,100946.84
2022-12-20T18:52:41.159Z,100934.88
2022-12-20T18:55:45.906Z,100926.34
2022-12-20T18:58:50.071Z,100932.56
2022-12-20T19:01:53.212Z,100921.16
2022-12-20T19:04:57.265Z,100932.78
2022-12-20T19:07:59.994Z,100938.31
2022-12-20T19:11:08.404Z,100945.44
2022-12-20T19:14:13.522Z,100939.97
2022-12-20T19:17:17.935Z,100934.81
2022-12-20T19:20:21.181Z,100927.75
2022-12-20T19:23:25.125Z,100931.38
2022-12-20T19:26:30.964Z,100931.66
2022-12-20T19:29:35.462Z,100922.69
2022-12-20T19:32:39.505Z,100924.53
2022-12-20T19:35:55.334Z,100915.88
2022-12-20T19:39:00.752Z,100926.13
2022-12-20T19:42:23.710Z,100928.63
2022-12-20T19:45:30.079Z,100939.97
2022-12-20T19:48:34.465Z,100933.19
2022-12-20T19:51:38.810Z,100932.66
2022-12-20T19:54:43.052Z,100940.16
2022-12-20T19:57:47.300Z,100918.72
2022-12-20T20:00:52.854Z,100913.03
2022-12-20T20:03:57.194Z,100924.78
2022-12-20T20:07:01.290Z,100909.03
2022-12-20T20:10:04.221Z,100910.00
2022-12-20T20:13:09.878Z,100911.72
2022-12-20T20:16:21.945Z,100914.94
2022-12-20T20:19:25.810Z,100917.50
2022-12-20T20:22:29.810Z,100903.72
2022-12-20T20:25:35.397Z,100907.22
2022-12-20T20:28:45.017Z,100914.63
2022-12-20T20:31:51.358Z,100915.59
2022-12-20T20:34:54.457Z,100915.31
2022-12-20T20:37:58.485Z,100920.84
2022-12-20T20:41:01.808Z,100911.91
2022-12-20T20:47:29.340Z,100899.47
2022-12-20T20:50:32.466Z,100905.91
2022-12-20T20:53:37.148Z,100908.03
2022-12-20T20:56:39.893Z,100905.69
2022-12-20T20:59:45.922Z,100908.41
2022-12-20T21:02:51.587Z,100911.59
2022-12-20T21:09:18.995Z,100903.00
2022-12-20T21:12:23.383Z,100899.56
2022-12-20T21:15:28.081Z,100887.22
2022-12-20T21:18:33.629Z,100893.56
2022-12-20T21:21:36.400Z,100899.03
2022-12-20T21:24:40.958Z,100897.72
2022-12-20T21:27:45.492Z,100885.06
2022-12-20T21:30:48.505Z,100882.59
2022-12-20T21:33:53.983Z,100895.81
2022-12-20T21:36:57.147Z,100899.13
2022-12-20T21:40:01.163Z,100892.19
2022-12-20T21:43:03.949Z,100887.06
2022-12-20T21:46:11.093Z,100890.53
2022-12-20T21:49:16.091Z,100885.66
2022-12-20T21:52:18.973Z,100878.88
2022-12-20T21:55:25.536Z,100877.06
2022-12-20T21:58:30.274Z,100869.72
2022-12-20T22:01:33.246Z,100874.59
2022-12-20T22:04:40.424Z,100875.06
2022-12-20T22:07:43.259Z,100881.97
2022-12-20T22:10:47.465Z,100876.69
2022-12-20T22:13:56.706Z,100880.59
2022-12-20T22:16:59.620Z,100893.47
2022-12-20T22:23:25.529Z,100882.72
2022-12-20T22:26:31.872Z,100870.38
2022-12-20T22:29:36.022Z,100880.34
2022-12-20T22:32:38.799Z,100860.38
2022-12-20T22:35:44.343Z,100852.78
2022-12-20T22:38:48.203Z,100844.13
2022-12-20T22:41:52.675Z,100849.94
2022-12-20T22:44:56.927Z,100848.63
2022-12-20T22:47:59.915Z,100848.91
2022-12-20T22:51:07.802Z,100854.78
2022-12-20T22:54:10.568Z,100836.00
2022-12-20T22:57:14.771Z,100845.31
2022-12-20T23:00:19.203Z,100843.03
2022-12-20T23:03:22.019Z,100847.16
2022-12-20T23:06:27.589Z,100844.81
2022-12-20T23:09:30.485Z,100837.69
2022-12-20T23:12:52.072Z,100833.91
2022-12-20T23:15:56.139Z,100842.59
2022-12-20T23:19:00.399Z,100860.84
2022-12-20T23:22:23.263Z,100854.28
2022-12-20T23:25:26.387Z,100842.41
2022-12-20T23:28:30.777Z,100843.44
2022-12-20T23:31:35.694Z,100848.31
2022-12-20T23:34:38.485Z,100847.56
2022-12-20T23:37:43.331Z,100854.50
2022-12-20T23:40:46.078Z,100855.97
2022-12-20T23:43:50.369Z,100838.91
2022-12-20T23:46:54.411Z,100831.81
2022-12-20T23:49:57.118Z,100824.66
2022-12-20T23:53:03.091Z,100813.97
2022-12-20T23:56:08.308Z,100815.00
2022-12-20T23:59:12.430Z,100823.25
